Time;durP1;ratioP1;P1;durP2;ratioP2;P2;SDS_P1;SDS_P2;PMS_P1;PMS_P2;Temp;Humidity;BMP_temperature;BMP_pressure;BME280_temperature;BME280_humidity;BME280_pressure;Samples;Min_cycle;Max_cycle;Signal;HPM_P1;HPM_P2
2024/03/04 00:00:25;;;;;;;;;;;5.60;99.90;;;-146.41;100.00;57768.22;5039200;28;1458;-70
2024/03/04 00:02:51;;;;;;;;;;;5.50;99.90;;;-146.41;100.00;57768.22;5037977;28;1456;-70
2024/03/04 00:05:18;;;;;;;;;;;5.50;99.90;;;-146.41;100.00;57768.22;5039872;28;1352;-70
2024/03/04 00:07:45;;;;;;;;;;;5.40;99.90;;;-146.41;100.00;57768.22;5038957;28;1317;-69
2024/03/04 00:10:12;;;;;;;;;;;5.50;99.90;;;-146.41;100.00;57768.22;5037002;28;1428;-69
2024/03/04 00:12:39;;;;;;;;;;;5.60;99.90;;;-146.41;100.00;57768.22;5036359;28;1889;-70
2024/03/04 00:15:06;;;;;;;;;;;5.70;99.90;;;-146.41;100.00;57768.22;5037902;28;1979;-70
2024/03/04 00:17:35;;;;;;;;;;;5.70;99.90;;;-146.41;100.00;57768.22;5037694;28;1329;-70
2024/03/04 00:20:06;;;;;;;;;;;5.80;99.90;;;-146.41;100.00;57768.22;5053660;28;1449;-68
2024/03/04 00:22:33;;;;;;;;;;;5.80;99.90;;;-146.41;100.00;57768.22;5035896;28;1642;-68
2024/03/04 00:25:01;;;;;;;;;;;5.80;99.90;;;-146.41;100.00;57768.22;5039869;28;1431;-68
2024/03/04 00:27:28;;;;;;;;;;;5.90;99.90;;;-146.41;100.00;57768.22;5036981;28;1462;-68
2024/03/04 00:29:54;;;;;;;;;;;5.90;99.90;;;-146.41;100.00;57768.22;5036878;28;1297;-69
2024/03/04 00:32:21;;;;;;;;;;;6.00;99.90;;;-146.41;100.00;57768.22;5037161;28;1486;-69
2024/03/04 00:34:48;;;;;;;;;;;6.00;99.90;;;-146.41;100.00;57768.22;5036330;28;1930;-68
2024/03/04 00:37:15;;;;;;;;;;;6.00;99.90;;;-146.41;100.00;57768.22;5034481;28;1305;-69
2024/03/04 00:39:42;;;;;;;;;;;6.00;99.90;;;-146.41;100.00;57768.22;5038426;28;1237;-69
2024/03/04 00:42:09;;;;;;;;;;;6.10;99.90;;;-146.41;100.00;57768.22;5040048;28;1391;-69
2024/03/04 00:44:36;;;;;;;;;;;6.10;99.90;;;-146.41;100.00;57768.22;5042490;28;1348;-68
2024/03/04 00:47:03;;;;;;;;;;;6.20;99.90;;;-146.41;100.00;57768.22;5038299;28;1379;-69
2024/03/04 00:49:30;;;;;;;;;;;6.20;99.90;;;-146.41;100.00;57768.22;5039092;28;1052;-69
2024/03/04 00:51:58;;;;;;;;;;;6.10;99.90;;;-146.41;100.00;57768.22;5056388;28;1385;-69
2024/03/04 00:54:25;;;;;;;;;;;6.00;99.90;;;-146.41;100.00;57768.22;5039630;28;1323;-69
2024/03/04 00:56:52;;;;;;;;;;;6.10;99.90;;;-146.41;100.00;57768.22;5042692;28;1914;-69
2024/03/04 00:59:18;;;;;;;;;;;6.10;99.90;;;-146.41;100.00;57768.22;5041229;28;1265;-68
2024/03/04 01:01:45;;;;;;;;;;;6.10;99.90;;;-146.41;100.00;57768.22;5052201;28;1360;-68
2024/03/04 01:04:12;;;;;;;;;;;6.20;99.90;;;-146.41;100.00;57768.22;5041375;28;1284;-68
2024/03/04 01:06:39;;;;;;;;;;;6.20;99.90;;;-146.41;100.00;57768.22;5038588;28;1434;-69
2024/03/04 01:09:06;;;;;;;;;;;6.20;99.90;;;-146.41;100.00;57768.22;5042672;28;1230;-68
2024/03/04 01:11:32;;;;;;;;;;;6.20;99.90;;;-146.41;100.00;57768.22;5038010;28;1391;-68
2024/03/04 01:13:59;;;;;;;;;;;6.20;99.90;;;-146.41;100.00;57768.22;5040620;28;1296;-68
2024/03/04 01:16:28;;;;;;;;;;;6.20;99.90;;;-146.41;100.00;57768.22;5039907;28;1989;-68
2024/03/04 01:18:56;;;;;;;;;;;6.20;99.90;;;-146.41;100.00;57768.22;5036038;28;1250;-68
2024/03/04 01:21:24;;;;;;;;;;;6.20;99.90;;;-146.41;100.00;57768.22;5056293;28;1334;-68
2024/03/04 01:23:52;;;;;;;;;;;6.20;99.90;;;-146.41;100.00;57768.22;5038636;28;1309;-69
2024/03/04 01:26:19;;;;;;;;;;;6.20;99.90;;;-146.41;100.00;57768.22;5042600;28;1735;-68
2024/03/04 01:28:47;;;;;;;;;;;6.10;99.90;;;-146.41;100.00;57768.22;5039879;28;1384;-68
2024/03/04 01:31:18;;;;;;;;;;;6.10;99.90;;;-146.41;100.00;57768.22;5038180;28;1507;-68
2024/03/04 01:33:51;;;;;;;;;;;6.10;99.90;;;-146.41;100.00;57768.22;5041143;28;1355;-68
2024/03/04 01:36:18;;;;;;;;;;;6.10;99.90;;;-146.41;100.00;57768.22;5040242;28;1903;-68
2024/03/04 01:38:45;;;;;;;;;;;6.10;99.90;;;-146.41;100.00;57768.22;5037984;28;1480;-68
2024/03/04 01:41:12;;;;;;;;;;;6.10;99.90;;;-146.41;100.00;57768.22;5039906;28;1457;-68
2024/03/04 01:43:39;;;;;;;;;;;6.10;99.90;;;-146.41;100.00;57768.22;5039017;28;1360;-68
2024/03/04 01:46:08;;;;;;;;;;;6.10;99.90;;;-146.41;100.00;57768.22;5042125;28;1312;-68
2024/03/04 01:48:35;;;;;;;;;;;6.00;99.90;;;-146.41;100.00;57768.22;5043769;28;1596;-68
2024/03/04 01:51:02;;;;;;;;;;;6.00;99.90;;;-146.41;100.00;57768.22;5037118;28;1373;-68
2024/03/04 01:53:29;;;;;;;;;;;5.90;99.90;;;-146.41;100.00;57768.22;5036177;28;1551;-68
2024/03/04 01:55:59;;;;;;;;;;;6.00;99.90;;;-146.41;100.00;57768.22;5036035;28;1981;-68
2024/03/04 01:58:27;;;;;;;;;;;6.00;99.90;;;-146.41;100.00;57768.22;5055915;28;1344;-68
2024/03/04 02:00:54;;;;;;;;;;;5.90;99.90;;;-146.41;100.00;57768.22;5053667;28;1344;-68
2024/03/04 02:03:22;;;;;;;;;;;5.90;99.90;;;-146.41;100.00;57768.22;5042883;28;1281;-68
2024/03/04 02:05:49;;;;;;;;;;;5.80;99.90;;;-146.41;100.00;57768.22;5050465;28;1447;-68
2024/03/04 02:08:16;;;;;;;;;;;5.90;99.90;;;-146.41;100.00;57768.22;5040581;28;1084;-68
2024/03/04 02:10:44;;;;;;;;;;;5.80;99.90;;;-146.41;100.00;57768.22;5038034;28;1304;-68
2024/03/04 02:13:11;;;;;;;;;;;5.80;99.90;;;-146.41;100.00;57768.22;5038516;28;1129;-68
2024/03/04 02:15:38;;;;;;;;;;;5.70;99.90;;;-146.41;100.00;57768.22;5039045;28;1982;-68
2024/03/04 02:18:06;;;;;;;;;;;5.80;99.90;;;-146.41;100.00;57768.22;5040885;28;1125;-68
2024/03/04 02:20:45;;;;;;;;;;;5.80;99.90;;;-146.41;100.00;57768.22;5038336;28;1382;-68
2024/03/04 02:23:12;;;;;;;;;;;5.80;99.90;;;-146.41;100.00;57768.22;5037836;28;1148;-68
2024/03/04 02:25:53;;;;;;;;;;;5.80;99.90;;;-146.41;100.00;57768.22;5039463;28;1153;-68
2024/03/04 02:28:22;;;;;;;;;;;5.90;99.90;;;-146.41;100.00;57768.22;5038941;28;1066;-68
2024/03/04 02:30:50;;;;;;;;;;;5.90;99.90;;;-146.41;100.00;57768.22;5038524;28;1280;-68
2024/03/04 02:33:21;;;;;;;;;;;6.00;99.90;;;-146.41;100.00;57768.22;5041578;28;1212;-68
2024/03/04 02:35:49;;;;;;;;;;;6.10;99.90;;;-146.41;100.00;57768.22;5039175;28;1895;-68
2024/03/04 02:38:19;;;;;;;;;;;6.30;99.90;;;-146.41;100.00;57768.22;5037641;28;1427;-68
2024/03/04 02:40:48;;;;;;;;;;;6.40;99.90;;;-146.41;100.00;57768.22;5037507;28;1339;-68
2024/03/04 02:43:16;;;;;;;;;;;6.40;99.90;;;-146.41;100.00;57768.22;5021223;28;1441;-69
2024/03/04 02:45:43;;;;;;;;;;;6.40;99.90;;;-146.41;100.00;57768.22;5038624;28;1339;-68
2024/03/04 02:48:10;;;;;;;;;;;6.50;99.90;;;-146.41;100.00;57768.22;5040216;28;1348;-68
2024/03/04 02:50:38;;;;;;;;;;;6.50;99.90;;;-146.41;100.00;57768.22;5039226;28;1359;-68
2024/03/04 02:53:05;;;;;;;;;;;6.60;99.90;;;-146.41;100.00;57768.22;5035999;28;1102;-68
2024/03/04 02:55:35;;;;;;;;;;;6.70;99.90;;;-146.41;100.00;57768.22;5037135;28;1931;-68
2024/03/04 02:58:08;;;;;;;;;;;6.80;99.90;;;-146.41;100.00;57768.22;5041858;28;1344;-68
2024/03/04 03:00:35;;;;;;;;;;;6.80;99.90;;;-146.41;100.00;57768.22;5038530;28;1364;-68
2024/03/04 03:03:03;;;;;;;;;;;6.90;99.90;;;-146.41;100.00;57768.22;5053161;28;2241;-68
2024/03/04 03:05:30;;;;;;;;;;;7.00;99.90;;;-146.41;100.00;57768.22;5037894;28;1221;-68
2024/03/04 03:07:56;;;;;;;;;;;7.00;99.90;;;-146.41;100.00;57768.22;5034199;28;1151;-68
2024/03/04 03:10:24;;;;;;;;;;;7.10;99.90;;;-146.41;100.00;57768.22;5037554;28;1256;-68
2024/03/04 03:12:51;;;;;;;;;;;7.10;99.90;;;-146.41;100.00;57768.22;5037417;28;1263;-68
2024/03/04 03:15:18;;;;;;;;;;;7.20;99.90;;;-146.41;100.00;57768.22;5035120;28;1212;-68
2024/03/04 03:17:44;;;;;;;;;;;7.20;99.90;;;-146.41;100.00;57768.22;5037871;28;1898;-68
2024/03/04 03:20:17;;;;;;;;;;;7.30;99.90;;;-146.41;100.00;57768.22;5038821;28;1320;-68
2024/03/04 03:22:45;;;;;;;;;;;7.30;99.90;;;-146.41;100.00;57768.22;5034176;28;1213;-68
2024/03/04 03:25:12;;;;;;;;;;;7.40;99.90;;;-146.41;100.00;57768.22;5038844;28;1237;-68
2024/03/04 03:27:40;;;;;;;;;;;7.50;99.90;;;-146.41;100.00;57768.22;5038853;28;1153;-68
2024/03/04 03:30:07;;;;;;;;;;;7.50;99.90;;;-146.41;100.00;57768.22;5038628;28;1339;-68
2024/03/04 03:32:36;;;;;;;;;;;7.60;99.90;;;-146.41;100.00;57768.22;5037745;28;1061;-68
2024/03/04 03:35:04;;;;;;;;;;;7.70;99.90;;;-146.41;100.00;57768.22;5036257;28;1370;-68
2024/03/04 03:37:31;;;;;;;;;;;7.70;99.90;;;-146.41;100.00;57768.22;5037798;28;1980;-68
2024/03/04 03:39:58;;;;;;;;;;;7.80;99.90;;;-146.41;100.00;57768.22;5054274;28;1109;-68
2024/03/04 03:42:24;;;;;;;;;;;7.90;99.90;;;-146.41;100.00;57768.22;5036238;28;1468;-68
2024/03/04 03:44:51;;;;;;;;;;;7.90;99.90;;;-146.41;100.00;57768.22;5038101;28;1150;-68
2024/03/04 03:47:18;;;;;;;;;;;8.00;99.90;;;-146.41;100.00;57768.22;5037578;28;1291;-68
2024/03/04 03:49:45;;;;;;;;;;;8.00;99.90;;;-146.41;100.00;57768.22;5037401;28;1374;-68
2024/03/04 03:52:11;;;;;;;;;;;8.00;99.90;;;-146.41;100.00;57768.22;5040859;28;1351;-69
2024/03/04 03:54:38;;;;;;;;;;;8.00;99.90;;;-146.41;100.00;57768.22;5039898;28;1146;-68
2024/03/04 03:57:06;;;;;;;;;;;7.90;99.90;;;-146.41;100.00;57768.22;5038420;28;1906;-68
2024/03/04 03:59:33;;;;;;;;;;;7.90;99.90;;;-146.41;100.00;57768.22;5034947;28;1260;-68
2024/03/04 04:02:00;;;;;;;;;;;7.90;99.90;;;-146.41;100.00;57768.22;5035284;28;1320;-68
2024/03/04 04:04:26;;;;;;;;;;;8.00;99.90;;;-146.41;100.00;57768.22;5036799;28;1189;-68
2024/03/04 04:06:53;;;;;;;;;;;8.00;99.90;;;-146.41;100.00;57768.22;5040552;28;1275;-68
2024/03/04 04:09:20;;;;;;;;;;;8.00;99.90;;;-146.41;100.00;57768.22;5039984;28;1392;-68
2024/03/04 04:11:47;;;;;;;;;;;8.00;99.90;;;-146.41;100.00;57768.22;5036020;28;1292;-68
2024/03/04 04:14:14;;;;;;;;;;;8.10;99.90;;;-146.41;100.00;57768.22;5035966;28;1068;-68
2024/03/04 04:16:40;;;;;;;;;;;8.10;99.90;;;-146.41;100.00;57768.22;5037670;28;1934;-68
2024/03/04 04:19:07;;;;;;;;;;;8.20;99.90;;;-146.41;100.00;57768.22;5042848;28;1244;-68
2024/03/04 04:21:34;;;;;;;;;;;8.20;99.90;;;-146.41;100.00;57768.22;5053382;28;1366;-68
2024/03/04 04:24:01;;;;;;;;;;;8.20;99.90;;;-146.41;100.00;57768.22;5039695;28;1117;-68
2024/03/04 04:26:28;;;;;;;;;;;8.20;99.90;;;-146.41;100.00;57768.22;5039200;28;1335;-68
2024/03/04 04:28:55;;;;;;;;;;;8.20;99.90;;;-146.41;100.00;57768.22;5041466;28;1597;-68
2024/03/04 04:31:23;;;;;;;;;;;8.30;99.90;;;-146.41;100.00;57768.22;5040748;28;1288;-68
2024/03/04 04:33:50;;;;;;;;;;;8.30;99.90;;;-146.41;100.00;57768.22;5040475;28;1192;-68
2024/03/04 04:36:17;;;;;;;;;;;8.30;99.90;;;-146.41;100.00;57768.22;5041319;28;1914;-68
2024/03/04 04:38:46;;;;;;;;;;;8.40;99.90;;;-146.41;100.00;57768.22;5038800;28;1369;-68
2024/03/04 04:41:13;;;;;;;;;;;8.40;99.90;;;-146.41;100.00;57768.22;5041091;28;1283;-68
2024/03/04 04:43:40;;;;;;;;;;;8.40;99.90;;;-146.41;100.00;57768.22;5039532;28;1164;-68
2024/03/04 04:46:07;;;;;;;;;;;8.40;99.90;;;-146.41;100.00;57768.22;5039878;28;1209;-68
2024/03/04 04:48:34;;;;;;;;;;;8.40;99.90;;;-146.41;100.00;57768.22;5042883;28;1280;-68
2024/03/04 04:51:02;;;;;;;;;;;8.40;99.90;;;-146.41;100.00;57768.22;5036954;28;1366;-68
2024/03/04 04:53:29;;;;;;;;;;;8.40;99.90;;;-146.41;100.00;57768.22;5039370;28;1295;-68
2024/03/04 04:55:56;;;;;;;;;;;8.30;99.90;;;-146.41;100.00;57768.22;5039332;28;1926;-68
2024/03/04 04:58:23;;;;;;;;;;;8.30;99.90;;;-146.41;100.00;57768.22;5039814;28;1181;-68
2024/03/04 05:00:52;;;;;;;;;;;8.30;99.90;;;-146.41;100.00;57768.22;5039042;28;1307;-68
2024/03/04 05:03:19;;;;;;;;;;;8.30;99.90;;;-146.41;100.00;57768.22;5039582;28;1164;-68
2024/03/04 05:06:06;;;;;;;;;;;8.30;99.90;;;-146.41;100.00;57768.22;5037541;28;2187;-68
2024/03/04 05:08:33;;;;;;;;;;;8.30;99.90;;;-146.41;100.00;57768.22;5039114;28;1105;-68
2024/03/04 05:11:00;;;;;;;;;;;8.30;99.90;;;-146.41;100.00;57768.22;5040264;28;2063;-68
2024/03/04 05:13:26;;;;;;;;;;;8.20;99.90;;;-146.41;100.00;57768.22;5037995;28;1138;-68
2024/03/04 05:15:53;;;;;;;;;;;8.20;99.90;;;-146.41;100.00;57768.22;5038694;28;1283;-68
2024/03/04 05:18:20;;;;;;;;;;;8.20;99.90;;;-146.41;100.00;57768.22;5039476;28;1958;-68
2024/03/04 05:20:47;;;;;;;;;;;8.20;99.90;;;-146.41;100.00;57768.22;5037466;28;1269;-68
2024/03/04 05:23:23;;;;;;;;;;;8.20;99.90;;;-146.41;100.00;57768.22;5036381;28;1014;-68
2024/03/04 05:25:50;;;;;;;;;;;8.20;99.90;;;-146.41;100.00;57768.22;5042691;28;1336;-68
2024/03/04 05:28:16;;;;;;;;;;;8.30;99.90;;;-146.41;100.00;57768.22;5035072;28;1180;-68
2024/03/04 05:30:43;;;;;;;;;;;8.20;99.90;;;-146.41;100.00;57768.22;5040421;28;1252;-68
2024/03/04 05:33:10;;;;;;;;;;;8.20;99.90;;;-146.41;100.00;57768.22;5054980;28;1287;-68
2024/03/04 05:35:40;;;;;;;;;;;8.20;99.90;;;-146.41;100.00;57768.22;5040718;28;1249;-68
2024/03/04 05:38:07;;;;;;;;;;;8.30;99.90;;;-146.41;100.00;57768.22;5041203;28;1910;-68
2024/03/04 05:40:34;;;;;;;;;;;8.30;99.90;;;-146.41;100.00;57768.22;5041632;28;1386;-68
2024/03/04 05:43:01;;;;;;;;;;;8.30;99.90;;;-146.41;100.00;57768.22;5040382;28;1170;-68
2024/03/04 05:45:28;;;;;;;;;;;8.40;99.90;;;-146.41;100.00;57768.22;5039000;28;1189;-68
2024/03/04 05:47:55;;;;;;;;;;;8.40;99.90;;;-146.41;100.00;57768.22;5038697;28;1228;-68
2024/03/04 05:50:23;;;;;;;;;;;8.40;99.90;;;-146.41;100.00;57768.22;5039732;28;1485;-68
2024/03/04 05:52:49;;;;;;;;;;;8.40;99.90;;;-146.41;100.00;57768.22;5037253;28;1189;-69
2024/03/04 05:55:16;;;;;;;;;;;8.40;99.90;;;-146.41;100.00;57768.22;5040222;28;1292;-68
2024/03/04 05:57:44;;;;;;;;;;;8.40;99.90;;;-146.41;100.00;57768.22;5037784;28;1995;-68
2024/03/04 06:00:14;;;;;;;;;;;8.50;99.90;;;-146.41;100.00;57768.22;5036972;28;1395;-69
2024/03/04 06:02:42;;;;;;;;;;;8.60;99.90;;;-146.41;100.00;57768.22;5040595;28;1415;-68
2024/03/04 06:05:11;;;;;;;;;;;8.60;99.90;;;-146.41;100.00;57768.22;5037963;28;1117;-69
2024/03/04 06:07:38;;;;;;;;;;;8.60;99.90;;;-146.41;100.00;57768.22;5040909;28;1463;-68
2024/03/04 06:10:05;;;;;;;;;;;8.50;99.90;;;-146.41;100.00;57768.22;5038598;28;1245;-68
2024/03/04 06:12:33;;;;;;;;;;;8.50;99.90;;;-146.41;100.00;57768.22;5038849;28;1281;-68
2024/03/04 06:15:00;;;;;;;;;;;8.50;99.90;;;-146.41;100.00;57768.22;5039411;28;1570;-68
2024/03/04 06:17:27;;;;;;;;;;;8.40;99.90;;;-146.41;100.00;57768.22;5041880;28;1910;-68
2024/03/04 06:19:54;;;;;;;;;;;8.40;99.90;;;-146.41;100.00;57768.22;5038345;28;1329;-68
2024/03/04 06:22:21;;;;;;;;;;;8.40;99.90;;;-146.41;100.00;57768.22;5037538;28;1445;-68
2024/03/04 06:24:48;;;;;;;;;;;8.40;99.90;;;-146.41;100.00;57768.22;5036708;28;1256;-68
2024/03/04 06:27:16;;;;;;;;;;;8.40;99.90;;;-146.41;100.00;57768.22;5040142;28;1316;-68
2024/03/04 06:29:43;;;;;;;;;;;8.40;99.90;;;-146.41;100.00;57768.22;5036557;28;1098;-68
2024/03/04 06:32:09;;;;;;;;;;;8.40;99.90;;;-146.41;100.00;57768.22;5038379;28;1348;-68
2024/03/04 06:34:36;;;;;;;;;;;8.40;99.90;;;-146.41;100.00;57768.22;5039459;28;1153;-68
2024/03/04 06:37:03;;;;;;;;;;;8.40;99.90;;;-146.41;100.00;57768.22;5038476;28;2310;-69
2024/03/04 06:39:31;;;;;;;;;;;8.40;99.90;;;-146.41;100.00;57768.22;5036811;28;1213;-68
2024/03/04 06:41:58;;;;;;;;;;;8.40;99.90;;;-146.41;100.00;57768.22;5036778;28;1413;-68
2024/03/04 06:44:25;;;;;;;;;;;8.50;99.90;;;-146.41;100.00;57768.22;5036602;28;1486;-68
2024/03/04 06:46:52;;;;;;;;;;;8.50;99.90;;;-146.41;100.00;57768.22;5040809;28;1090;-69
2024/03/04 06:49:19;;;;;;;;;;;8.50;99.90;;;-146.41;100.00;57768.22;5037179;28;1201;-68
2024/03/04 06:51:45;;;;;;;;;;;8.50;99.90;;;-146.41;100.00;57768.22;5036368;28;1345;-68
2024/03/04 06:54:14;;;;;;;;;;;8.50;99.90;;;-146.41;100.00;57768.22;5032432;28;1239;-69
2024/03/04 06:56:41;;;;;;;;;;;8.60;99.90;;;-146.41;100.00;57768.22;5036518;28;1915;-69
2024/03/04 06:59:08;;;;;;;;;;;8.60;99.90;;;-146.41;100.00;57768.22;5036319;28;1105;-68
2024/03/04 07:01:35;;;;;;;;;;;8.60;99.90;;;-146.41;100.00;57768.22;5037336;28;1777;-68
2024/03/04 07:04:02;;;;;;;;;;;8.60;99.90;;;-146.41;100.00;57768.22;5038483;28;1033;-68
2024/03/04 07:06:29;;;;;;;;;;;8.70;99.90;;;-146.41;100.00;57768.22;5039477;28;1086;-68
2024/03/04 07:08:57;;;;;;;;;;;8.70;99.90;;;-146.41;100.00;57768.22;5035173;28;1162;-68
2024/03/04 07:11:24;;;;;;;;;;;8.60;99.90;;;-146.41;100.00;57768.22;5038527;28;1462;-68
2024/03/04 07:13:51;;;;;;;;;;;8.60;99.90;;;-146.41;100.00;57768.22;5033782;28;1129;-68
2024/03/04 07:16:18;;;;;;;;;;;8.50;99.90;;;-146.41;100.00;57768.22;5034916;28;1129;-68
2024/03/04 07:18:46;;;;;;;;;;;8.60;99.90;;;-146.41;100.00;57768.22;5036019;28;1910;-68
2024/03/04 07:21:17;;;;;;;;;;;8.60;99.90;;;-146.41;100.00;57768.22;5037800;28;1375;-68
2024/03/04 07:23:44;;;;;;;;;;;8.60;99.90;;;-146.41;100.00;57768.22;5035035;28;1176;-68
2024/03/04 07:26:11;;;;;;;;;;;8.60;99.90;;;-146.41;100.00;57768.22;5035159;28;1313;-68
2024/03/04 07:28:40;;;;;;;;;;;8.50;99.90;;;-146.41;100.00;57768.22;5037698;28;1085;-68
2024/03/04 07:31:08;;;;;;;;;;;8.60;99.90;;;-146.41;100.00;57768.22;5038263;28;1353;-68
2024/03/04 07:33:35;;;;;;;;;;;8.60;99.90;;;-146.41;100.00;57768.22;5051833;28;1312;-68
2024/03/04 07:36:03;;;;;;;;;;;8.60;99.90;;;-146.41;100.00;57768.22;5038145;28;1204;-68
2024/03/04 07:38:30;;;;;;;;;;;8.60;99.90;;;-146.41;100.00;57768.22;5035082;28;1906;-68
2024/03/04 07:40:57;;;;;;;;;;;8.50;99.90;;;-146.41;100.00;57768.22;5035271;28;1387;-68
2024/03/04 07:43:24;;;;;;;;;;;8.50;99.90;;;-146.41;100.00;57768.22;5034901;28;1285;-69
2024/03/04 07:45:52;;;;;;;;;;;8.50;99.90;;;-146.41;100.00;57768.22;5036633;28;1400;-69
2024/03/04 07:48:18;;;;;;;;;;;8.50;99.90;;;-146.41;100.00;57768.22;5050505;28;1271;-68
2024/03/04 07:50:45;;;;;;;;;;;8.50;99.90;;;-146.41;100.00;57768.22;5038008;28;1385;-68
2024/03/04 07:53:12;;;;;;;;;;;8.50;99.90;;;-146.41;100.00;57768.22;5040803;28;1078;-68
2024/03/04 07:55:39;;;;;;;;;;;8.50;99.90;;;-146.41;100.00;57768.22;5043209;28;1237;-68
2024/03/04 07:58:06;;;;;;;;;;;8.50;99.90;;;-146.41;100.00;57768.22;5041723;28;1910;-68
2024/03/04 08:00:33;;;;;;;;;;;8.50;99.90;;;-146.41;100.00;57768.22;5039677;28;1339;-68
2024/03/04 08:03:00;;;;;;;;;;;8.50;99.90;;;-146.41;100.00;57768.22;5041786;28;1371;-68
2024/03/04 08:05:27;;;;;;;;;;;8.60;99.90;;;-146.41;100.00;57768.22;5051064;28;1304;-68
2024/03/04 08:07:56;;;;;;;;;;;8.60;99.90;;;-146.41;100.00;57768.22;5023975;28;1186;-69
2024/03/04 08:10:23;;;;;;;;;;;8.60;99.90;;;-146.41;100.00;57768.22;5038667;28;1296;-68
2024/03/04 08:12:50;;;;;;;;;;;8.70;99.90;;;-146.41;100.00;57768.22;5041422;28;1200;-68
2024/03/04 08:15:16;;;;;;;;;;;8.70;99.90;;;-146.41;100.00;57768.22;5039745;28;1224;-68
2024/03/04 08:17:43;;;;;;;;;;;8.60;99.90;;;-146.41;100.00;57768.22;5040863;28;1906;-68
2024/03/04 08:20:24;;;;;;;;;;;8.70;99.90;;;-146.41;100.00;57768.22;5043287;28;1287;-68
2024/03/04 08:23:03;;;;;;;;;;;8.80;99.90;;;-146.41;100.00;57768.22;5044737;28;1138;-68
2024/03/04 08:25:31;;;;;;;;;;;8.80;99.90;;;-146.41;100.00;57768.22;5042388;28;1304;-68
2024/03/04 08:27:58;;;;;;;;;;;8.70;99.90;;;-146.41;100.00;57768.22;5038130;28;1030;-68
2024/03/04 08:30:25;;;;;;;;;;;8.70;99.90;;;-146.41;100.00;57768.22;5038714;28;1264;-68
2024/03/04 08:32:53;;;;;;;;;;;8.70;99.90;;;-146.41;100.00;57768.22;5039503;28;1310;-68
2024/03/04 08:35:20;;;;;;;;;;;8.70;99.90;;;-146.41;100.00;57768.22;5040848;28;1149;-69
2024/03/04 08:37:47;;;;;;;;;;;8.60;99.90;;;-146.41;100.00;57768.22;5042860;28;1962;-68
2024/03/04 08:40:14;;;;;;;;;;;8.70;99.90;;;-146.41;100.00;57768.22;5043229;28;1304;-69
2024/03/04 08:42:42;;;;;;;;;;;8.70;99.90;;;-146.41;100.00;57768.22;5038202;28;1308;-68
2024/03/04 08:45:09;;;;;;;;;;;8.80;99.90;;;-146.41;100.00;57768.22;5041059;28;1219;-69
2024/03/04 08:47:36;;;;;;;;;;;8.80;99.90;;;-146.41;100.00;57768.22;5038071;28;1191;-68
2024/03/04 08:50:04;;;;;;;;;;;8.80;99.90;;;-146.41;100.00;57768.22;5039571;28;1153;-68
2024/03/04 08:52:31;;;;;;;;;;;8.90;99.90;;;-146.41;100.00;57768.22;5044867;28;1225;-68
2024/03/04 08:54:58;;;;;;;;;;;8.80;99.90;;;-146.41;100.00;57768.22;5039838;28;1387;-68
2024/03/04 08:57:25;;;;;;;;;;;8.80;99.90;;;-146.41;100.00;57768.22;5039359;28;1910;-68
2024/03/04 08:59:52;;;;;;;;;;;8.80;99.90;;;-146.41;100.00;57768.22;5043356;28;1367;-68
2024/03/04 09:02:19;;;;;;;;;;;8.90;99.90;;;-146.41;100.00;57768.22;5040443;28;1427;-68
2024/03/04 09:04:47;;;;;;;;;;;8.90;99.90;;;-146.41;100.00;57768.22;5037921;28;1189;-68
2024/03/04 09:07:15;;;;;;;;;;;8.90;99.90;;;-146.41;100.00;57768.22;5038478;28;1125;-68
2024/03/04 09:09:50;;;;;;;;;;;9.00;99.90;;;-146.41;100.00;57768.22;5054026;28;1217;-68
2024/03/04 09:12:17;;;;;;;;;;;8.90;99.90;;;-146.41;100.00;57768.22;5037589;28;1319;-68
2024/03/04 09:14:44;;;;;;;;;;;8.80;99.90;;;-146.41;100.00;57768.22;5036315;28;1227;-68
2024/03/04 09:17:11;;;;;;;;;;;8.90;99.90;;;-146.41;100.00;57768.22;5041570;28;1910;-68
2024/03/04 09:19:41;;;;;;;;;;;9.00;99.90;;;-146.41;100.00;57768.22;5037496;28;1188;-68
2024/03/04 09:22:08;;;;;;;;;;;9.10;99.90;;;-146.41;100.00;57768.22;5039905;28;1404;-68
2024/03/04 09:24:35;;;;;;;;;;;9.10;99.90;;;-146.41;100.00;57768.22;5037204;28;1283;-68
2024/03/04 09:27:02;;;;;;;;;;;9.10;99.90;;;-146.41;100.00;57768.22;5035472;28;1611;-69
2024/03/04 09:29:29;;;;;;;;;;;9.00;99.90;;;-146.41;100.00;57768.22;5038432;28;1012;-68
2024/03/04 09:31:56;;;;;;;;;;;9.00;99.90;;;-146.41;100.00;57768.22;5053180;28;1498;-68
2024/03/04 09:34:23;;;;;;;;;;;9.10;99.90;;;-146.41;100.00;57768.22;5036079;28;1754;-68
2024/03/04 09:36:50;;;;;;;;;;;9.20;99.90;;;-146.41;100.00;57768.22;5041271;28;1429;-68
2024/03/04 09:39:17;;;;;;;;;;;9.10;99.90;;;-146.41;100.00;57768.22;5037717;28;1906;-68
2024/03/04 09:41:43;;;;;;;;;;;9.10;99.90;;;-146.41;100.00;57768.22;5038559;28;1379;-68
2024/03/04 09:44:10;;;;;;;;;;;9.10;99.90;;;-146.41;100.00;57768.22;5037104;28;1429;-68
2024/03/04 09:46:38;;;;;;;;;;;9.10;99.90;;;-146.41;100.00;57768.22;5020631;28;1290;-68
2024/03/04 09:49:08;;;;;;;;;;;9.00;99.90;;;-146.41;100.00;57768.22;5054989;28;1453;-68
2024/03/04 09:51:36;;;;;;;;;;;9.10;99.90;;;-146.41;100.00;57768.22;5036449;28;1493;-68
2024/03/04 09:54:04;;;;;;;;;;;9.20;99.90;;;-146.41;100.00;57768.22;5037726;28;1337;-69
2024/03/04 09:56:30;;;;;;;;;;;9.20;99.90;;;-146.41;100.00;57768.22;5037542;28;1567;-68
2024/03/04 09:58:57;;;;;;;;;;;9.40;99.90;;;-146.41;100.00;57768.22;5038147;28;1914;-68
2024/03/04 10:01:24;;;;;;;;;;;9.40;99.90;;;-146.41;100.00;57768.22;5036306;28;1413;-68
2024/03/04 10:03:51;;;;;;;;;;;9.40;99.90;;;-146.41;100.00;57768.22;5036573;28;1472;-68
2024/03/04 10:06:18;;;;;;;;;;;9.30;99.90;;;-146.41;100.00;57768.22;5052256;28;1467;-68
2024/03/04 10:08:45;;;;;;;;;;;9.30;99.90;;;-146.41;100.00;57768.22;5035982;28;1441;-69
2024/03/04 10:11:12;;;;;;;;;;;9.30;99.90;;;-146.41;100.00;57768.22;5053267;28;1400;-68
2024/03/04 10:13:39;;;;;;;;;;;9.30;99.90;;;-146.41;100.00;57768.22;5035635;28;1496;-69
2024/03/04 10:16:12;;;;;;;;;;;9.30;99.90;;;-146.41;100.00;57768.22;5035696;28;1545;-69
2024/03/04 10:18:39;;;;;;;;;;;9.40;99.90;;;-146.41;100.00;57768.22;5040005;28;1970;-68
2024/03/04 10:21:07;;;;;;;;;;;9.40;99.90;;;-146.41;100.00;57768.22;5038361;28;1729;-68
2024/03/04 10:23:36;;;;;;;;;;;9.40;99.90;;;-146.41;100.00;57768.22;5052535;28;1369;-68
2024/03/04 10:26:09;;;;;;;;;;;9.30;99.90;;;-146.41;100.00;57768.22;5035740;28;1270;-68
2024/03/04 10:28:38;;;;;;;;;;;9.40;99.90;;;-146.41;100.00;57768.22;5036970;28;1306;-68
2024/03/04 10:31:07;;;;;;;;;;;9.50;99.90;;;-146.41;100.00;57768.22;5038007;28;1482;-68
2024/03/04 10:33:34;;;;;;;;;;;9.40;99.90;;;-146.41;100.00;57768.22;5039808;28;1461;-68
2024/03/04 10:36:17;;;;;;;;;;;9.40;99.90;;;-146.41;100.00;57768.22;5048982;28;1405;-68
2024/03/04 10:38:48;;;;;;;;;;;9.50;99.90;;;-146.41;100.00;57768.22;5037798;28;1914;-69
2024/03/04 10:41:25;;;;;;;;;;;9.60;99.90;;;-146.41;100.00;57768.22;5039795;28;2051;-69
2024/03/04 10:43:52;;;;;;;;;;;9.80;99.90;;;-146.41;100.00;57768.22;5053682;28;1487;-69
2024/03/04 10:46:20;;;;;;;;;;;10.00;99.90;;;-146.41;100.00;57768.22;5038292;28;1213;-68
2024/03/04 10:48:47;;;;;;;;;;;10.00;99.90;;;-146.41;100.00;57768.22;5038461;28;1336;-68
2024/03/04 10:51:18;;;;;;;;;;;9.80;99.90;;;-146.41;100.00;57768.22;5054356;28;1276;-69
2024/03/04 10:53:45;;;;;;;;;;;9.80;99.90;;;-146.41;100.00;57768.22;5052894;28;1512;-68
2024/03/04 10:56:16;;;;;;;;;;;10.10;99.90;;;-146.41;100.00;57768.22;5051118;28;1309;-68
2024/03/04 10:58:44;;;;;;;;;;;10.20;99.90;;;-146.41;100.00;57768.22;5038125;28;1981;-68
2024/03/04 11:01:14;;;;;;;;;;;10.20;99.90;;;-146.41;100.00;57768.22;5036089;28;1515;-68
2024/03/04 11:03:46;;;;;;;;;;;10.20;99.90;;;-146.41;100.00;57768.22;5037515;28;1271;-68
2024/03/04 11:06:18;;;;;;;;;;;10.20;99.90;;;-146.41;100.00;57768.22;5033485;28;1433;-69
2024/03/04 11:08:50;;;;;;;;;;;10.00;99.90;;;-146.41;100.00;57768.22;5052935;28;1433;-68
2024/03/04 11:11:34;;;;;;;;;;;10.00;99.90;;;-146.41;100.00;57768.22;5052941;28;1496;-68